Latest Weather Observations for Yeppoon

IDQ60801

Issued at 11:02 am EST Monday 22 December 2014 (issued every 30 minutes, with the page automatically refreshed every 10 minutes)

About weather observations | Map of weather stations | Latest weather observations for QLD | Other Formats
Station Details ID: 033294 Name: YEPPOON THE ESPLANADE Lat: -23.14 Lon: 150.75 Height: 5.5 m
Data from the previous 72 hours. | See also: Recent months at Yeppoon
Date/Time
EST
Temp
°C
App
Temp
°C
Dew
Point
Rel
Hum
%
Delta-T
°C
Wind Press
QNH
hPa
Press
MSL
hPa
Rain
since 9 am
mm
Dir
 
Spd
km/h
Gust
km/h
Spd
kts
Gust
kts
22/11:00am 28.3 27.1 18.3 54 6.4 E 22 28 12 15 1015.9 1015.9 0.0
22/10:30am 28.0 26.8 19.2 58 5.7 E 24 32 13 17 1016.0 1016.0 0.0
22/10:00am 27.2 25.4 18.8 60 5.4 E 26 32 14 17 1016.1 1016.1 0.0
22/09:30am 27.4 26.0 18.8 59 5.5 E 24 32 13 17 1016.0 1016.0 0.0
22/09:00am 27.1 26.0 19.5 63 4.9 E 24 33 13 18 1016.0 1016.0 0.0
22/08:30am 26.4 24.8 19.2 64 4.6 E 26 35 14 19 1015.9 1015.9 0.0
22/08:00am 26.1 25.0 19.4 66 4.3 E 24 33 13 18 1015.5 1015.5 0.0
22/07:30am 26.6 25.8 19.3 64 4.7 E 22 30 12 16 1015.4 1015.4 0.0
22/07:00am 26.3 25.3 19.7 67 4.3 E 24 33 13 18 1014.9 1014.9 0.0
22/06:30am 25.5 25.1 19.4 69 3.9 E 20 24 11 13 1014.8 1014.8 0.0
22/06:00am 25.4 25.1 19.2 68 4.0 E 19 26 10 14 1014.5 1014.5 0.0
22/05:30am 25.2 24.6 18.8 67 4.1 E 20 30 11 16 1014.0 1014.0 0.0
22/05:00am 25.1 24.7 18.8 68 4.0 E 19 26 10 14 1013.5 1013.5 0.0
22/04:30am 24.9 24.3 18.9 69 3.8 E 20 28 11 15 1013.2 1013.2 0.0
22/04:00am 25.2 25.0 19.8 72 3.5 E 20 26 11 14 1013.1 1013.1 0.0
22/03:30am 25.0 24.7 19.6 72 3.5 E 20 28 11 15 1013.1 1013.1 0.0
22/03:00am 25.2 25.2 18.9 68 4.0 E 17 22 9 12 1013.4 1013.4 0.0
22/02:30am 25.3 25.1 19.4 70 3.8 E 19 26 10 14 1013.6 1013.6 0.0
22/02:00am 25.5 26.0 20.1 72 3.5 E 17 24 9 13 1013.9 1013.9 0.0
22/01:30am 25.3 25.1 19.4 70 3.8 E 19 26 10 14 1014.2 1014.2 0.0
22/01:00am 25.4 24.7 18.6 66 4.3 E 20 28 11 15 1014.7 1014.7 0.0
22/12:30am 25.7 25.6 20.0 71 3.7 ENE 20 30 11 16 1015.0 1015.0 0.0
22/12:00am 25.7 25.7 20.2 71 3.6 ENE 20 30 11 16 1015.2 1015.2 0.0
 
Date/Time
EST
Temp
°C
App
Temp
°C
Dew
Point
Rel
Hum
%
Delta-T
°C
Wind Press
QNH
hPa
Press
MSL
hPa
Rain
since 9 am
mm
Dir
 
Spd
km/h
Gust
km/h
Spd
kts
Gust
kts
21/11:30pm 25.6 24.8 20.1 71 3.6 ENE 24 32 13 17 1015.3 1015.3 0.0
21/11:00pm 25.7 24.8 19.8 70 3.8 ENE 24 30 13 16 1015.7 1015.7 0.0
21/10:30pm 26.0 25.6 21.0 74 3.3 E 24 32 13 17 1016.0 1016.0 0.0
21/10:00pm 26.0 25.5 20.8 73 3.4 ENE 24 33 13 18 1015.7 1015.7 0.0
21/09:30pm 26.1 26.4 21.6 76 3.0 ENE 22 32 12 17 1015.5 1015.5 0.0
21/09:00pm 26.2 26.2 20.9 72 3.5 ENE 22 30 12 16 1015.3 1015.3 0.0
21/08:30pm 26.2 26.6 21.0 73 3.4 ENE 20 28 11 15 1015.2 1015.2 0.0
21/08:00pm 26.4 26.6 21.3 73 3.4 E 22 30 12 16 1015.2 1015.2 0.0
21/07:30pm 26.3 26.6 20.8 71 3.6 ENE 20 28 11 15 1015.0 1015.0 0.0
21/07:00pm 26.3 26.3 21.0 72 3.5 ENE 22 32 12 17 1014.7 1014.7 0.0
21/06:30pm 26.5 26.6 21.2 72 3.5 ENE 22 30 12 16 1014.3 1014.3 0.0
21/06:00pm 26.7 27.0 20.8 70 3.9 ENE 20 28 11 15 1014.0 1014.0 0.0
21/05:30pm 27.0 27.6 21.1 70 3.9 ENE 19 30 10 16 1013.6 1013.6 0.0
21/05:00pm 27.2 27.4 20.5 67 4.4 ENE 20 28 11 15 1013.4 1013.4 0.0
21/04:30pm 27.5 28.0 21.2 68 4.2 ENE 20 30 11 16 1013.5 1013.5 0.0
21/04:00pm 27.7 28.0 20.7 65 4.6 NE 20 26 11 14 1013.6 1013.6 0.0
21/03:30pm 28.0 28.4 20.6 64 4.9 ENE 19 24 10 13 1013.7 1013.7 0.0
21/03:00pm 28.0 28.5 20.9 65 4.7 ENE 19 26 10 14 1013.9 1013.9 0.0
21/02:30pm 28.5 29.4 20.8 63 5.1 ENE 17 22 9 12 1014.1 1014.1 0.0
21/02:00pm 29.0 29.4 20.7 61 5.5 E 19 22 10 12 1014.5 1014.5 0.0
21/01:30pm 28.8 29.2 21.0 62 5.2 E 20 26 11 14 1014.8 1014.8 0.0
21/01:00pm 28.6 29.0 20.9 63 5.1 E 20 26 11 14 1015.2 1015.2 0.0
21/12:30pm 28.6 29.2 21.1 64 5.0 ESE 19 26 10 14 1015.4 1015.4 0.0
21/12:00pm 28.7 29.9 21.5 65 4.8 E 17 24 9 13 1015.8 1015.8 0.0
21/11:30am 28.1 28.4 20.8 64 4.8 E 20 26 11 14 1016.0 1016.0 0.0
21/11:00am 28.5 28.6 20.4 61 5.3 E 20 26 11 14 1016.1 1016.1 0.0
21/10:30am 27.7 28.2 21.1 67 4.4 E 20 26 11 14 1016.0 1016.0 0.0
21/10:00am 27.8 28.9 21.3 67 4.3 E 17 22 9 12 1016.2 1016.2 0.0
21/09:30am 27.6 28.9 20.8 66 4.5 ENE 15 20 8 11 1016.0 1016.0 0.0
21/09:00am 27.5 28.6 21.2 68 4.2 ENE 17 22 9 12 1016.0 1016.0 0.2
21/08:30am 27.4 27.9 20.9 67 4.3 E 19 22 10 12 1015.8 1015.8 0.2
21/08:00am 27.2 28.0 21.8 72 3.6 E 20 26 11 14 1015.5 1015.5 0.2
21/07:30am 26.5 27.2 21.5 74 3.3 ENE 20 28 11 15 1015.2 1015.2 0.2
21/07:00am 26.4 27.3 21.6 75 3.2 ENE 19 30 10 16 1014.9 1014.9 0.2
21/06:30am 26.3 26.9 21.3 74 3.3 ENE 20 28 11 15 1014.6 1014.6 0.2
21/06:00am 25.9 26.1 20.6 72 3.5 ENE 20 28 11 15 1014.2 1014.2 0.2
21/05:30am 25.8 26.3 21.1 75 3.1 ENE 20 28 11 15 1013.9 1013.9 0.2
21/05:00am 25.6 26.0 20.9 75 3.1 ENE 20 26 11 14 1013.5 1013.5 0.2
21/04:30am 25.8 26.0 21.4 76 2.9 NE 22 28 12 15 1013.1 1013.1 0.2
21/04:00am 25.7 26.6 21.5 77 2.8 ENE 19 26 10 14 1013.0 1013.0 0.2
21/03:30am 25.8 26.4 21.4 76 2.9 ENE 20 28 11 15 1012.9 1012.9 0.2
21/03:00am 25.7 26.0 21.5 77 2.8 ENE 22 28 12 15 1012.9 1012.9 0.2
21/02:30am 25.6 25.6 20.9 75 3.1 ENE 22 32 12 17 1012.9 1012.9 0.2
21/02:00am 25.7 25.6 20.7 74 3.3 ENE 22 28 12 15 1013.1 1013.1 0.2
21/01:30am 25.9 26.3 21.0 74 3.2 E 20 30 11 16 1013.3 1013.3 0.2
21/01:00am 25.9 26.0 21.2 75 3.1 E 22 28 12 15 1013.5 1013.5 0.2
21/12:30am 25.9 26.2 21.5 76 2.9 ENE 22 30 12 16 1013.6 1013.6 0.2
21/12:00am 26.0 26.6 21.3 75 3.1 ENE 20 28 11 15 1014.0 1014.0 0.2
 
Date/Time
EST
Temp
°C
App
Temp
°C
Dew
Point
Rel
Hum
%
Delta-T
°C
Wind Press
QNH
hPa
Press
MSL
hPa
Rain
since 9 am
mm
Dir
 
Spd
km/h
Gust
km/h
Spd
kts
Gust
kts
20/11:30pm 26.0 26.7 21.6 76 2.9 ENE 20 26 11 14 1014.4 1014.4 0.2
20/11:00pm 26.0 26.0 21.6 76 2.9 ENE 24 30 13 16 1014.5 1014.5 0.2
20/10:30pm 26.2 26.6 21.7 76 3.0 E 22 30 12 16 1014.8 1014.8 0.2
20/10:00pm 26.2 27.0 21.7 76 3.0 ENE 20 28 11 15 1014.7 1014.7 0.2
20/09:30pm 26.3 27.1 21.8 76 3.0 ENE 20 28 11 15 1014.5 1014.5 0.2
20/09:00pm 26.3 27.2 22.0 77 2.9 ENE 20 26 11 14 1014.2 1014.2 0.2
20/08:30pm 26.2 27.1 22.0 77 2.8 ENE 20 28 11 15 1013.8 1013.8 0.2
20/08:00pm 26.3 27.3 21.8 76 3.0 ENE 19 26 10 14 1013.5 1013.5 0.2
20/07:30pm 26.2 27.2 22.2 78 2.7 ENE 20 28 11 15 1013.2 1013.2 0.2
20/07:00pm 26.6 27.6 22.1 76 3.0 ENE 20 30 11 16 1012.9 1012.9 0.2
20/06:30pm 26.6 27.6 22.1 76 3.0 ENE 20 26 11 14 1012.4 1012.4 0.2
20/06:00pm 26.9 28.0 22.0 74 3.3 ENE 19 26 10 14 1012.2 1012.2 0.2
20/05:30pm 27.0 27.6 21.4 71 3.7 ENE 20 26 11 14 1011.8 1011.8 0.2
20/05:00pm 27.1 27.7 21.4 71 3.8 NE 20 26 11 14 1011.6 1011.6 0.2
20/04:30pm 27.4 28.3 21.6 70 3.9 ENE 19 24 10 13 1011.3 1011.3 0.2
20/04:00pm 27.6 28.6 22.1 72 3.7 NE 20 26 11 14 1011.4 1011.4 0.2
20/03:30pm 28.0 29.2 22.1 70 4.0 ENE 19 26 10 14 1011.6 1011.6 0.2
20/03:00pm 28.0 28.6 22.1 70 4.0 ENE 22 30 12 16 1011.8 1011.8 0.2
20/02:30pm 28.1 29.3 22.2 70 4.0 ENE 19 26 10 14 1012.2 1012.2 0.2
20/02:00pm 28.5 30.0 22.0 68 4.4 ENE 17 22 9 12 1012.2 1012.2 0.2
20/01:30pm 29.1 30.5 22.6 68 4.4 E 19 24 10 13 1012.5 1012.5 0.2
20/01:00pm 29.3 31.2 22.0 64 4.9 E 15 22 8 12 1012.7 1012.7 0.2
20/12:30pm 28.9 30.7 21.9 66 4.7 E 15 20 8 11 1013.1 1013.1 0.2
20/12:00pm 28.7 30.1 21.9 66 4.6 E 17 20 9 11 1013.4 1013.4 0.2
20/11:30am 28.7 30.6 22.0 67 4.5 E 15 19 8 10 1013.8 1013.8 0.2
20/11:00am 28.3 31.0 22.9 72 3.7 E 13 19 7 10 1014.1 1014.1 0.2
20/10:30am 28.0 30.0 22.9 74 3.5 E 17 20 9 11 1014.2 1014.2 0.2
20/10:00am 27.9 29.7 22.6 73 3.6 E 17 20 9 11 1014.1 1014.1 0.0
20/09:30am 27.9 30.4 23.1 75 3.3 E 15 19 8 10 1014.0 1014.0 0.0
20/09:00am 27.8 29.9 22.5 73 3.6 E 15 20 8 11 1013.7 1013.7 0.6
20/08:30am 27.0 30.0 22.7 77 2.9 ESE 11 17 6 9 1013.6 1013.6 0.6
20/08:00am 25.2 29.6 23.4 90 1.2 ENE 6 11 3 6 1013.6 1013.6 0.6
20/07:30am 23.9 28.6 23.3 96 0.4 W 4 9 2 5 1013.3 1013.3 0.6
20/07:00am 22.6 26.2 22.4 99 0.1 W 7 9 4 5 1013.0 1013.0 0.6
20/06:30am 21.3 24.0 21.3 100 0.0 W 9 11 5 6 1012.7 1012.7 0.4
20/06:00am 20.8 23.5 20.6 99 0.1 W 7 11 4 6 1012.2 1012.2 0.4
20/05:30am 20.4 23.0 20.4 100 0.0 WSW 7 9 4 5 1011.8 1011.8 0.4
20/05:00am 20.4 22.5 20.2 99 0.1 W 9 11 5 6 1011.3 1011.3 0.4
20/04:30am 20.5 23.1 20.5 100 0.0 WSW 7 11 4 6 1011.1 1011.1 0.4
20/04:00am 20.7 23.3 20.5 99 0.1 W 7 9 4 5 1010.9 1010.9 0.4
20/03:30am 20.8 22.7 20.6 99 0.1 W 11 13 6 7 1010.9 1010.9 0.4
20/03:00am 21.0 23.3 20.7 98 0.2 WSW 9 11 5 6 1011.0 1011.0 0.4
20/02:30am 21.3 24.2 21.0 98 0.2 W 7 11 4 6 1011.1 1011.1 0.4
20/02:00am 21.8 25.1 21.5 98 0.2 WSW 6 7 3 4 1011.2 1011.2 0.4
20/01:30am 22.1 25.3 21.6 97 0.3 W 7 9 4 5 1011.4 1011.4 0.4
20/01:00am 22.0 25.1 21.5 97 0.3 W 7 9 4 5 1011.6 1011.6 0.4
20/12:30am 22.5 26.0 21.9 96 0.4 W 6 7 3 4 1011.9 1011.9 0.4
20/12:00am 22.7 25.8 22.1 96 0.4 W 9 11 5 6 1012.3 1012.3 0.4
 
Date/Time
EST
Temp
°C
App
Temp
°C
Dew
Point
Rel
Hum
%
Delta-T
°C
Wind Press
QNH
hPa
Press
MSL
hPa
Rain
since 9 am
mm
Dir
 
Spd
km/h
Gust
km/h
Spd
kts
Gust
kts
19/11:30pm 22.9 26.4 22.1 95 0.5 W 7 7 4 4 1012.6 1012.6 0.4
19/11:00pm 23.1 27.6 22.2 95 0.6 W 2 7 1 4 1013.0 1013.0 0.4
19/10:30pm 23.6 27.8 22.4 93 0.8 W 4 6 2 3 1013.2 1013.2 0.4
19/10:00pm 24.1 29.2 22.6 91 1.0 CALM 0 0 0 0 1013.3 1013.3 0.4
19/09:30pm 25.0 29.2 23.1 89 1.3 N 6 9 3 5 1013.1 1013.1 0.4
19/09:00pm 25.4 29.6 23.2 88 1.5 NE 6 9 3 5 1012.8 1012.8 0.4
19/08:30pm 25.4 29.6 23.2 88 1.5 NE 6 9 3 5 1012.5 1012.5 0.4
19/08:00pm 25.5 29.1 23.1 86 1.6 NE 9 13 5 7 1012.4 1012.4 0.4
19/07:30pm 25.6 28.5 23.1 86 1.7 NE 13 19 7 10 1012.2 1012.2 0.4
19/07:00pm 25.7 28.6 23.2 86 1.7 NE 13 19 7 10 1012.1 1012.1 0.4
19/06:30pm 25.8 29.7 23.0 84 1.9 E 7 11 4 6 1011.7 1011.7 0.4
19/06:00pm 25.8 28.8 22.7 83 2.1 E 11 17 6 9 1011.5 1011.5 0.4
19/05:30pm 26.2 28.9 22.8 81 2.3 E 13 17 7 9 1011.1 1011.1 0.4
19/05:00pm 26.3 29.0 22.9 81 2.3 E 13 17 7 9 1010.9 1010.9 0.4
19/04:30pm 26.2 29.5 22.6 80 2.4 ESE 9 13 5 7 1011.0 1011.0 0.4
19/04:00pm 25.9 28.8 22.5 81 2.3 E 11 17 6 9 1011.1 1011.1 0.4
19/03:30pm 26.0 28.6 22.7 82 2.2 E 13 15 7 8 1010.9 1010.9 0.4
19/03:00pm 25.4 28.2 23.0 86 1.6 SE 13 19 7 10 1010.9 1010.9 0.4
19/02:30pm 25.3 28.2 23.1 87 1.5 ESE 13 19 7 10 1011.4 1011.4 0.4
19/02:00pm 25.3 28.2 23.1 87 1.5 ESE 13 17 7 9 1011.6 1011.6 0.4
19/01:30pm 25.2 28.0 23.0 87 1.5 SE 13 17 7 9 1012.0 1012.0 0.4
19/01:00pm 25.7 28.7 22.7 83 2.0 SE 11 17 6 9 1012.2 1012.2 0.0
19/12:30pm 25.9 27.7 22.5 81 2.3 SE 17 24 9 13 1012.2 1012.2 0.0
19/12:00pm 25.7 27.4 22.4 82 2.2 SE 17 26 9 14 1012.4 1012.4 0.0
19/11:30am 25.5 28.1 23.3 88 1.5 ESE 15 22 8 12 1012.6 1012.6 0.0

Other Formats:

Comma delimited format used in spreadsheet applications
http://www.bom.gov.au/fwo/IDQ60801/IDQ60801.94373.axf

JavaScript Object Notation format (JSON) in row-major order
http://www.bom.gov.au/fwo/IDQ60801/IDQ60801.94373.json